CheckWX is a tool to help pilots better visualize weather data.  It is not intended as a substitute for an official pre-flight weather briefing.

12:24:55 UTC

KHON TAF
Huron Regional Airport
Huron, South Dakota, USA
KHON 221120Z 2212/2312 34004KT 3SM BR FEW001 FM221600 09005KT P6SM SKC FM230000 11006KT P6SM SKC FM231000 14007KT P6SM SCT025

Mar-22@
12:00 UTC

Mar-22 @ 12:00 UTC

Mar-22@
16:00 UTC

Mar-22 @ 16:00 UTC

KHON 221120Z 2212/2312 34004KT 3SM BR FEW001
Wind
  • 340° at 4 KTS
Conditions
Mist
Cloud Levels
  • Few at 100' AGL

Mar-22@
16:00 UTC

Mar-22 @ 16:00 UTC

Mar-23@
00:00 UTC

Mar-23 @ 00:00 UTC

FM221600 09005KT P6SM SKC

From

From Standard forecast or significant change

Wind
  • 090° at 5 KTS
Cloud Levels
  • Clear skies

Mar-23@
00:00 UTC

Mar-23 @ 00:00 UTC

Mar-23@
10:00 UTC

Mar-23 @ 10:00 UTC

FM230000 11006KT P6SM SKC

From

From Standard forecast or significant change

Wind
  • 110° at 6 KTS
Cloud Levels
  • Clear skies

Mar-23@
10:00 UTC

Mar-23 @ 10:00 UTC

Mar-23@
12:00 UTC

Mar-23 @ 12:00 UTC

FM231000 14007KT P6SM SCT025

From

From Standard forecast or significant change

Wind
  • 140° at 7 KTS
Cloud Levels
  • Scattered at 2,500' AGL